Terminal Aerodrome Forecast
Issued by NWS

Home | Current Version | Previous Version | Text Only | Print | Product List | Glossary On
Versions: 1 2 3 4 5 6 7 8 9 10 11 12 13 14 15 16 17 18 19 20 21 22 23
868
FTUS45 KABQ 190542 RRB
TAFROW
TAF
KROW 190542Z 1906/2006 24008KT P6SM SCT080
      TEMPO 1911/1913 4SM BR SCT007
     FM191400 25007KT P6SM SCT250
     FM191800 27018G28KT P6SM BKN200=

USA.gov is the U.S. government's official web portal to all federal, state and local government web resources and services.